sensor_id;sensor_type;location;lat;lon;timestamp;temperature;humidity
29281;DHT22;25048;49.590;11.026;2023-12-28T00:00:09;0.50;99.90
29281;DHT22;25048;49.590;11.026;2023-12-28T00:02:36;0.50;99.90
29281;DHT22;25048;49.590;11.026;2023-12-28T00:05:04;0.40;99.90
29281;DHT22;25048;49.590;11.026;2023-12-28T00:07:32;0.40;99.90
29281;DHT22;25048;49.590;11.026;2023-12-28T00:09:59;0.40;99.90
29281;DHT22;25048;49.590;11.026;2023-12-28T00:12:27;0.30;99.90
29281;DHT22;25048;49.590;11.026;2023-12-28T00:14:54;0.30;99.90
29281;DHT22;25048;49.590;11.026;2023-12-28T00:17:22;0.20;99.90
29281;DHT22;25048;49.590;11.026;2023-12-28T00:19:49;0.30;99.90
29281;DHT22;25048;49.590;11.026;2023-12-28T00:22:17;0.20;99.90
29281;DHT22;25048;49.590;11.026;2023-12-28T00:24:44;0.20;99.90
29281;DHT22;25048;49.590;11.026;2023-12-28T00:27:12;0.10;99.90
29281;DHT22;25048;49.590;11.026;2023-12-28T00:29:39;0.00;99.90
29281;DHT22;25048;49.590;11.026;2023-12-28T00:32:07;0.00;99.90
29281;DHT22;25048;49.590;11.026;2023-12-28T00:34:35;0.10;99.90
29281;DHT22;25048;49.590;11.026;2023-12-28T00:37:03;0.20;99.90
29281;DHT22;25048;49.590;11.026;2023-12-28T00:39:31;0.30;99.90
29281;DHT22;25048;49.590;11.026;2023-12-28T00:41:58;0.30;99.90
29281;DHT22;25048;49.590;11.026;2023-12-28T00:44:26;0.30;99.90
29281;DHT22;25048;49.590;11.026;2023-12-28T00:46:53;0.40;99.90
29281;DHT22;25048;49.590;11.026;2023-12-28T00:49:21;0.40;99.90
29281;DHT22;25048;49.590;11.026;2023-12-28T00:51:48;0.30;99.90
29281;DHT22;25048;49.590;11.026;2023-12-28T00:54:16;0.30;99.90
29281;DHT22;25048;49.590;11.026;2023-12-28T00:56:43;0.30;99.90
29281;DHT22;25048;49.590;11.026;2023-12-28T00:59:11;0.30;99.90
29281;DHT22;25048;49.590;11.026;2023-12-28T01:01:38;0.30;99.90
29281;DHT22;25048;49.590;11.026;2023-12-28T01:04:06;0.30;99.90
29281;DHT22;25048;49.590;11.026;2023-12-28T01:06:33;0.20;99.90
29281;DHT22;25048;49.590;11.026;2023-12-28T01:09:01;0.20;99.90
29281;DHT22;25048;49.590;11.026;2023-12-28T01:11:29;0.20;99.90
29281;DHT22;25048;49.590;11.026;2023-12-28T01:13:56;0.20;99.90
29281;DHT22;25048;49.590;11.026;2023-12-28T01:16:24;0.20;99.90
29281;DHT22;25048;49.590;11.026;2023-12-28T01:18:51;0.20;99.90
29281;DHT22;25048;49.590;11.026;2023-12-28T01:21:19;0.20;99.90
29281;DHT22;25048;49.590;11.026;2023-12-28T01:23:46;0.20;99.90
29281;DHT22;25048;49.590;11.026;2023-12-28T01:26:14;0.10;99.90
29281;DHT22;25048;49.590;11.026;2023-12-28T01:28:42;0.10;99.90
29281;DHT22;25048;49.590;11.026;2023-12-28T01:31:09;0.00;99.90
29281;DHT22;25048;49.590;11.026;2023-12-28T01:33:37;0.00;99.90
29281;DHT22;25048;49.590;11.026;2023-12-28T01:36:18;-0.10;99.90
29281;DHT22;25048;49.590;11.026;2023-12-28T01:38:46;-0.10;99.90
29281;DHT22;25048;49.590;11.026;2023-12-28T01:41:14;-0.10;99.90
29281;DHT22;25048;49.590;11.026;2023-12-28T01:43:42;-0.10;99.90
29281;DHT22;25048;49.590;11.026;2023-12-28T01:46:18;-0.10;99.90
29281;DHT22;25048;49.590;11.026;2023-12-28T01:48:49;-0.10;99.90
29281;DHT22;25048;49.590;11.026;2023-12-28T01:51:17;0.00;99.90
29281;DHT22;25048;49.590;11.026;2023-12-28T01:53:47;0.00;99.90
29281;DHT22;25048;49.590;11.026;2023-12-28T01:56:15;0.00;99.90
29281;DHT22;25048;49.590;11.026;2023-12-28T01:58:44;0.00;99.90
29281;DHT22;25048;49.590;11.026;2023-12-28T02:01:13;-0.10;99.90
29281;DHT22;25048;49.590;11.026;2023-12-28T02:03:41;-0.10;99.90
29281;DHT22;25048;49.590;11.026;2023-12-28T02:06:09;-0.20;99.90
29281;DHT22;25048;49.590;11.026;2023-12-28T02:08:36;-0.20;99.90
29281;DHT22;25048;49.590;11.026;2023-12-28T02:11:04;-0.30;99.90
29281;DHT22;25048;49.590;11.026;2023-12-28T02:13:31;-0.30;99.90
29281;DHT22;25048;49.590;11.026;2023-12-28T02:16:06;-0.30;99.90
29281;DHT22;25048;49.590;11.026;2023-12-28T02:18:38;-0.30;99.90
29281;DHT22;25048;49.590;11.026;2023-12-28T02:21:06;-0.30;99.90
29281;DHT22;25048;49.590;11.026;2023-12-28T02:23:35;-0.30;99.90
29281;DHT22;25048;49.590;11.026;2023-12-28T02:26:03;-0.20;99.90
29281;DHT22;25048;49.590;11.026;2023-12-28T02:28:30;-0.20;99.90
29281;DHT22;25048;49.590;11.026;2023-12-28T02:31:00;-0.20;99.90
29281;DHT22;25048;49.590;11.026;2023-12-28T02:33:35;-0.20;99.90
29281;DHT22;25048;49.590;11.026;2023-12-28T02:36:06;-0.20;99.90
29281;DHT22;25048;49.590;11.026;2023-12-28T02:38:36;-0.20;99.90
29281;DHT22;25048;49.590;11.026;2023-12-28T02:41:04;-0.20;99.90
29281;DHT22;25048;49.590;11.026;2023-12-28T02:43:31;-0.20;99.90
29281;DHT22;25048;49.590;11.026;2023-12-28T02:45:59;0.00;99.90
29281;DHT22;25048;49.590;11.026;2023-12-28T02:48:27;0.10;99.90
29281;DHT22;25048;49.590;11.026;2023-12-28T02:50:54;0.20;99.90
29281;DHT22;25048;49.590;11.026;2023-12-28T02:53:22;0.20;99.90
29281;DHT22;25048;49.590;11.026;2023-12-28T02:55:49;0.10;99.90
29281;DHT22;25048;49.590;11.026;2023-12-28T02:58:17;0.10;99.90
29281;DHT22;25048;49.590;11.026;2023-12-28T03:00:46;0.20;99.90
29281;DHT22;25048;49.590;11.026;2023-12-28T03:03:15;0.20;99.90
29281;DHT22;25048;49.590;11.026;2023-12-28T03:05:42;0.20;99.90
29281;DHT22;25048;49.590;11.026;2023-12-28T03:08:10;0.30;99.90
29281;DHT22;25048;49.590;11.026;2023-12-28T03:10:37;0.20;99.90
29281;DHT22;25048;49.590;11.026;2023-12-28T03:13:05;0.20;99.90
29281;DHT22;25048;49.590;11.026;2023-12-28T03:15:33;0.20;99.90
29281;DHT22;25048;49.590;11.026;2023-12-28T03:18:00;0.20;99.90
29281;DHT22;25048;49.590;11.026;2023-12-28T03:20:28;0.20;99.90
29281;DHT22;25048;49.590;11.026;2023-12-28T03:22:55;0.30;99.90
29281;DHT22;25048;49.590;11.026;2023-12-28T03:25:23;0.30;99.90
29281;DHT22;25048;49.590;11.026;2023-12-28T03:27:50;0.40;99.90
29281;DHT22;25048;49.590;11.026;2023-12-28T03:30:18;0.40;99.90
29281;DHT22;25048;49.590;11.026;2023-12-28T03:32:45;0.40;99.90
29281;DHT22;25048;49.590;11.026;2023-12-28T03:35:13;0.40;99.90
29281;DHT22;25048;49.590;11.026;2023-12-28T03:37:40;0.50;99.90
29281;DHT22;25048;49.590;11.026;2023-12-28T03:40:08;0.50;99.90
29281;DHT22;25048;49.590;11.026;2023-12-28T03:42:36;0.50;99.90
29281;DHT22;25048;49.590;11.026;2023-12-28T03:45:05;0.60;99.90
29281;DHT22;25048;49.590;11.026;2023-12-28T03:47:32;0.60;99.90
29281;DHT22;25048;49.590;11.026;2023-12-28T03:50:00;0.70;99.90
29281;DHT22;25048;49.590;11.026;2023-12-28T03:52:27;0.60;99.90
29281;DHT22;25048;49.590;11.026;2023-12-28T03:54:56;0.70;99.90
29281;DHT22;25048;49.590;11.026;2023-12-28T03:57:25;0.80;99.90
29281;DHT22;25048;49.590;11.026;2023-12-28T03:59:53;0.80;99.90
29281;DHT22;25048;49.590;11.026;2023-12-28T04:02:20;0.90;99.90
29281;DHT22;25048;49.590;11.026;2023-12-28T04:04:48;1.10;99.90
29281;DHT22;25048;49.590;11.026;2023-12-28T04:07:15;1.30;99.90
29281;DHT22;25048;49.590;11.026;2023-12-28T04:09:43;1.30;99.90
29281;DHT22;25048;49.590;11.026;2023-12-28T04:12:10;1.40;99.90
29281;DHT22;25048;49.590;11.026;2023-12-28T04:14:38;1.40;99.90
29281;DHT22;25048;49.590;11.026;2023-12-28T04:17:05;1.50;99.90
29281;DHT22;25048;49.590;11.026;2023-12-28T04:19:33;1.70;99.90
29281;DHT22;25048;49.590;11.026;2023-12-28T04:22:00;1.80;99.90
29281;DHT22;25048;49.590;11.026;2023-12-28T04:24:28;2.00;99.90
29281;DHT22;25048;49.590;11.026;2023-12-28T04:26:55;2.00;99.90
29281;DHT22;25048;49.590;11.026;2023-12-28T04:29:23;2.10;99.90
29281;DHT22;25048;49.590;11.026;2023-12-28T04:31:50;2.20;99.90
29281;DHT22;25048;49.590;11.026;2023-12-28T04:34:18;2.30;99.90
29281;DHT22;25048;49.590;11.026;2023-12-28T04:36:45;2.30;99.90
29281;DHT22;25048;49.590;11.026;2023-12-28T04:39:15;2.40;99.90
29281;DHT22;25048;49.590;11.026;2023-12-28T04:41:43;2.40;99.90
29281;DHT22;25048;49.590;11.026;2023-12-28T04:44:10;2.40;99.90
29281;DHT22;25048;49.590;11.026;2023-12-28T04:46:38;2.40;99.90
29281;DHT22;25048;49.590;11.026;2023-12-28T04:49:07;2.40;99.90
29281;DHT22;25048;49.590;11.026;2023-12-28T04:51:35;2.50;99.90
29281;DHT22;25048;49.590;11.026;2023-12-28T04:54:02;2.60;99.90
29281;DHT22;25048;49.590;11.026;2023-12-28T04:56:30;2.60;99.90
29281;DHT22;25048;49.590;11.026;2023-12-28T04:58:57;2.60;99.90
29281;DHT22;25048;49.590;11.026;2023-12-28T05:01:25;2.80;99.90
29281;DHT22;25048;49.590;11.026;2023-12-28T05:03:52;2.80;99.90
29281;DHT22;25048;49.590;11.026;2023-12-28T05:06:20;2.90;99.90
29281;DHT22;25048;49.590;11.026;2023-12-28T05:08:47;3.00;99.90
29281;DHT22;25048;49.590;11.026;2023-12-28T05:11:15;3.10;99.90
29281;DHT22;25048;49.590;11.026;2023-12-28T05:13:42;3.10;99.90
29281;DHT22;25048;49.590;11.026;2023-12-28T05:16:10;3.20;99.90
29281;DHT22;25048;49.590;11.026;2023-12-28T05:18:37;3.30;99.90
29281;DHT22;25048;49.590;11.026;2023-12-28T05:21:05;3.30;99.90
29281;DHT22;25048;49.590;11.026;2023-12-28T05:23:32;3.30;99.90
29281;DHT22;25048;49.590;11.026;2023-12-28T05:26:00;3.40;99.90
29281;DHT22;25048;49.590;11.026;2023-12-28T05:28:27;3.40;99.90
29281;DHT22;25048;49.590;11.026;2023-12-28T05:30:55;3.40;99.90
29281;DHT22;25048;49.590;11.026;2023-12-28T05:33:25;3.40;99.90
29281;DHT22;25048;49.590;11.026;2023-12-28T05:35:52;3.40;99.90
29281;DHT22;25048;49.590;11.026;2023-12-28T05:38:20;3.50;99.90
29281;DHT22;25048;49.590;11.026;2023-12-28T05:40:47;3.50;99.90
29281;DHT22;25048;49.590;11.026;2023-12-28T05:43:15;3.50;99.90
29281;DHT22;25048;49.590;11.026;2023-12-28T05:45:42;3.50;99.90
29281;DHT22;25048;49.590;11.026;2023-12-28T05:48:10;3.40;99.90
29281;DHT22;25048;49.590;11.026;2023-12-28T05:50:37;3.50;99.90
29281;DHT22;25048;49.590;11.026;2023-12-28T05:53:05;3.50;99.90
29281;DHT22;25048;49.590;11.026;2023-12-28T05:55:32;3.50;99.90
29281;DHT22;25048;49.590;11.026;2023-12-28T05:58:00;3.60;99.90
29281;DHT22;25048;49.590;11.026;2023-12-28T06:00:27;3.60;99.90
29281;DHT22;25048;49.590;11.026;2023-12-28T06:02:55;3.60;99.90
29281;DHT22;25048;49.590;11.026;2023-12-28T06:05:22;3.60;99.90
29281;DHT22;25048;49.590;11.026;2023-12-28T06:07:50;3.60;99.90
29281;DHT22;25048;49.590;11.026;2023-12-28T06:10:18;3.70;99.90
29281;DHT22;25048;49.590;11.026;2023-12-28T06:12:46;3.70;99.90
29281;DHT22;25048;49.590;11.026;2023-12-28T06:15:14;3.80;99.90
29281;DHT22;25048;49.590;11.026;2023-12-28T06:17:41;3.80;99.90
29281;DHT22;25048;49.590;11.026;2023-12-28T06:20:10;3.80;99.90
29281;DHT22;25048;49.590;11.026;2023-12-28T06:22:37;3.80;99.90
29281;DHT22;25048;49.590;11.026;2023-12-28T06:25:05;3.90;99.90
29281;DHT22;25048;49.590;11.026;2023-12-28T06:27:33;4.00;99.90
29281;DHT22;25048;49.590;11.026;2023-12-28T06:30:01;4.00;99.90
29281;DHT22;25048;49.590;11.026;2023-12-28T06:32:28;4.10;99.90
29281;DHT22;25048;49.590;11.026;2023-12-28T06:34:56;4.20;99.90
29281;DHT22;25048;49.590;11.026;2023-12-28T06:37:23;4.30;99.90
29281;DHT22;25048;49.590;11.026;2023-12-28T06:39:51;4.40;99.90
29281;DHT22;25048;49.590;11.026;2023-12-28T06:42:18;4.50;99.90
29281;DHT22;25048;49.590;11.026;2023-12-28T06:44:46;4.50;99.90
29281;DHT22;25048;49.590;11.026;2023-12-28T06:47:13;4.50;99.90
29281;DHT22;25048;49.590;11.026;2023-12-28T06:49:41;4.50;99.90
29281;DHT22;25048;49.590;11.026;2023-12-28T06:52:08;4.50;99.90
29281;DHT22;25048;49.590;11.026;2023-12-28T06:54:35;4.50;99.90
29281;DHT22;25048;49.590;11.026;2023-12-28T06:57:03;4.50;99.90
29281;DHT22;25048;49.590;11.026;2023-12-28T06:59:31;4.60;99.90
29281;DHT22;25048;49.590;11.026;2023-12-28T07:01:58;4.70;99.90
29281;DHT22;25048;49.590;11.026;2023-12-28T07:04:26;4.70;99.90
29281;DHT22;25048;49.590;11.026;2023-12-28T07:06:55;4.70;99.90
29281;DHT22;25048;49.590;11.026;2023-12-28T07:09:23;4.70;99.90
29281;DHT22;25048;49.590;11.026;2023-12-28T07:11:50;4.80;99.90
29281;DHT22;25048;49.590;11.026;2023-12-28T07:14:18;4.80;99.90
29281;DHT22;25048;49.590;11.026;2023-12-28T07:16:45;4.80;99.90
29281;DHT22;25048;49.590;11.026;2023-12-28T07:19:13;4.80;99.90
29281;DHT22;25048;49.590;11.026;2023-12-28T07:21:40;4.80;99.90
29281;DHT22;25048;49.590;11.026;2023-12-28T07:24:08;4.80;99.90
29281;DHT22;25048;49.590;11.026;2023-12-28T07:26:35;4.90;99.90
29281;DHT22;25048;49.590;11.026;2023-12-28T07:29:03;4.90;99.90
29281;DHT22;25048;49.590;11.026;2023-12-28T07:31:30;5.00;99.90
29281;DHT22;25048;49.590;11.026;2023-12-28T07:33:58;5.00;99.90
29281;DHT22;25048;49.590;11.026;2023-12-28T07:36:26;5.10;99.90
29281;DHT22;25048;49.590;11.026;2023-12-28T07:38:53;5.10;99.90
29281;DHT22;25048;49.590;11.026;2023-12-28T07:41:20;5.10;99.90
29281;DHT22;25048;49.590;11.026;2023-12-28T07:43:48;5.10;99.90
29281;DHT22;25048;49.590;11.026;2023-12-28T07:46:15;5.10;99.90
29281;DHT22;25048;49.590;11.026;2023-12-28T07:48:43;5.10;99.90
29281;DHT22;25048;49.590;11.026;2023-12-28T07:51:13;5.20;99.90
29281;DHT22;25048;49.590;11.026;2023-12-28T07:53:40;5.20;99.90
29281;DHT22;25048;49.590;11.026;2023-12-28T07:56:08;5.20;99.90
29281;DHT22;25048;49.590;11.026;2023-12-28T07:58:35;5.20;99.90
29281;DHT22;25048;49.590;11.026;2023-12-28T08:01:03;5.30;99.90
29281;DHT22;25048;49.590;11.026;2023-12-28T08:03:31;5.30;99.90
29281;DHT22;25048;49.590;11.026;2023-12-28T08:05:59;5.30;99.90
29281;DHT22;25048;49.590;11.026;2023-12-28T08:08:26;5.40;99.90
29281;DHT22;25048;49.590;11.026;2023-12-28T08:10:54;5.40;99.90
29281;DHT22;25048;49.590;11.026;2023-12-28T08:13:21;5.40;99.90
29281;DHT22;25048;49.590;11.026;2023-12-28T08:15:49;5.50;99.90
29281;DHT22;25048;49.590;11.026;2023-12-28T08:18:17;5.50;99.90
29281;DHT22;25048;49.590;11.026;2023-12-28T08:20:44;5.50;99.90
29281;DHT22;25048;49.590;11.026;2023-12-28T08:23:12;5.60;99.90
29281;DHT22;25048;49.590;11.026;2023-12-28T08:25:39;5.60;99.90
29281;DHT22;25048;49.590;11.026;2023-12-28T08:28:07;5.60;99.90
29281;DHT22;25048;49.590;11.026;2023-12-28T08:30:35;5.60;99.90
29281;DHT22;25048;49.590;11.026;2023-12-28T08:33:02;5.70;99.90
29281;DHT22;25048;49.590;11.026;2023-12-28T08:35:30;5.70;99.90
29281;DHT22;25048;49.590;11.026;2023-12-28T08:37:58;5.70;99.90
29281;DHT22;25048;49.590;11.026;2023-12-28T08:40:25;5.80;99.90
29281;DHT22;25048;49.590;11.026;2023-12-28T08:42:53;5.70;99.90
29281;DHT22;25048;49.590;11.026;2023-12-28T08:45:20;5.80;99.90
29281;DHT22;25048;49.590;11.026;2023-12-28T08:47:48;5.80;99.90
29281;DHT22;25048;49.590;11.026;2023-12-28T08:50:15;5.70;99.90
29281;DHT22;25048;49.590;11.026;2023-12-28T08:52:43;5.70;99.90
29281;DHT22;25048;49.590;11.026;2023-12-28T08:55:11;5.60;99.90
29281;DHT22;25048;49.590;11.026;2023-12-28T08:57:38;5.60;99.90
29281;DHT22;25048;49.590;11.026;2023-12-28T09:00:07;5.60;99.90
29281;DHT22;25048;49.590;11.026;2023-12-28T09:02:34;5.60;99.90
29281;DHT22;25048;49.590;11.026;2023-12-28T09:05:02;5.70;99.90
29281;DHT22;25048;49.590;11.026;2023-12-28T09:07:29;5.70;99.90
29281;DHT22;25048;49.590;11.026;2023-12-28T09:09:57;5.80;99.90
29281;DHT22;25048;49.590;11.026;2023-12-28T09:12:24;5.80;99.90
29281;DHT22;25048;49.590;11.026;2023-12-28T09:14:52;5.90;99.90
29281;DHT22;25048;49.590;11.026;2023-12-28T09:17:22;6.00;99.90
29281;DHT22;25048;49.590;11.026;2023-12-28T09:19:50;6.00;99.90
29281;DHT22;25048;49.590;11.026;2023-12-28T09:22:18;6.10;99.90
29281;DHT22;25048;49.590;11.026;2023-12-28T09:24:45;6.10;99.90
29281;DHT22;25048;49.590;11.026;2023-12-28T09:27:13;6.10;99.90
29281;DHT22;25048;49.590;11.026;2023-12-28T09:29:40;6.10;99.90
29281;DHT22;25048;49.590;11.026;2023-12-28T09:32:07;6.20;99.90
29281;DHT22;25048;49.590;11.026;2023-12-28T09:34:36;6.20;99.90
29281;DHT22;25048;49.590;11.026;2023-12-28T09:37:03;6.20;99.90
29281;DHT22;25048;49.590;11.026;2023-12-28T09:39:31;6.30;99.90
29281;DHT22;25048;49.590;11.026;2023-12-28T09:42:02;6.40;99.90
29281;DHT22;25048;49.590;11.026;2023-12-28T09:44:29;6.50;99.90
29281;DHT22;25048;49.590;11.026;2023-12-28T09:46:58;6.60;99.90
29281;DHT22;25048;49.590;11.026;2023-12-28T09:49:26;6.70;99.90
29281;DHT22;25048;49.590;11.026;2023-12-28T09:51:53;6.70;99.90
29281;DHT22;25048;49.590;11.026;2023-12-28T09:54:21;6.80;99.90
29281;DHT22;25048;49.590;11.026;2023-12-28T09:56:49;6.80;99.90
29281;DHT22;25048;49.590;11.026;2023-12-28T09:59:17;6.90;99.90
29281;DHT22;25048;49.590;11.026;2023-12-28T10:01:47;7.00;99.90
29281;DHT22;25048;49.590;11.026;2023-12-28T10:04:16;7.10;99.90
29281;DHT22;25048;49.590;11.026;2023-12-28T10:06:43;7.10;99.90
29281;DHT22;25048;49.590;11.026;2023-12-28T10:09:11;7.20;99.90
29281;DHT22;25048;49.590;11.026;2023-12-28T10:11:39;7.30;99.90
29281;DHT22;25048;49.590;11.026;2023-12-28T10:14:09;7.30;99.90
29281;DHT22;25048;49.590;11.026;2023-12-28T10:16:40;7.40;99.90
29281;DHT22;25048;49.590;11.026;2023-12-28T10:19:07;7.50;99.90
29281;DHT22;25048;49.590;11.026;2023-12-28T10:21:34;7.50;99.90
29281;DHT22;25048;49.590;11.026;2023-12-28T10:24:03;7.60;99.90
29281;DHT22;25048;49.590;11.026;2023-12-28T10:26:31;7.60;99.90
29281;DHT22;25048;49.590;11.026;2023-12-28T10:29:02;7.70;99.90
29281;DHT22;25048;49.590;11.026;2023-12-28T10:31:30;7.80;99.90
29281;DHT22;25048;49.590;11.026;2023-12-28T10:34:00;7.80;99.90
29281;DHT22;25048;49.590;11.026;2023-12-28T10:36:31;7.90;99.90
29281;DHT22;25048;49.590;11.026;2023-12-28T10:39:00;8.00;99.90
29281;DHT22;25048;49.590;11.026;2023-12-28T10:41:29;8.10;99.90
29281;DHT22;25048;49.590;11.026;2023-12-28T10:44:04;8.20;99.90
29281;DHT22;25048;49.590;11.026;2023-12-28T10:46:33;8.20;99.90
29281;DHT22;25048;49.590;11.026;2023-12-28T10:49:12;8.30;99.90
29281;DHT22;25048;49.590;11.026;2023-12-28T10:51:41;8.30;99.90
29281;DHT22;25048;49.590;11.026;2023-12-28T10:54:37;8.30;99.90
29281;DHT22;25048;49.590;11.026;2023-12-28T10:57:23;8.40;99.90
29281;DHT22;25048;49.590;11.026;2023-12-28T11:00:00;8.50;99.90
29281;DHT22;25048;49.590;11.026;2023-12-28T11:02:27;8.60;99.90
29281;DHT22;25048;49.590;11.026;2023-12-28T11:04:55;8.60;99.90
29281;DHT22;25048;49.590;11.026;2023-12-28T11:07:23;8.70;99.90
29281;DHT22;25048;49.590;11.026;2023-12-28T11:09:51;8.70;99.90
29281;DHT22;25048;49.590;11.026;2023-12-28T11:12:21;8.70;99.90
29281;DHT22;25048;49.590;11.026;2023-12-28T11:14:49;8.70;99.90
29281;DHT22;25048;49.590;11.026;2023-12-28T11:17:20;8.70;99.90
29281;DHT22;25048;49.590;11.026;2023-12-28T11:19:48;8.70;99.90
29281;DHT22;25048;49.590;11.026;2023-12-28T11:22:16;8.70;99.90
29281;DHT22;25048;49.590;11.026;2023-12-28T11:24:44;8.70;99.90
29281;DHT22;25048;49.590;11.026;2023-12-28T11:27:12;8.60;99.90
29281;DHT22;25048;49.590;11.026;2023-12-28T11:29:41;8.60;99.90
29281;DHT22;25048;49.590;11.026;2023-12-28T11:32:10;8.60;99.90
29281;DHT22;25048;49.590;11.026;2023-12-28T11:34:38;8.50;99.90
29281;DHT22;25048;49.590;11.026;2023-12-28T11:37:13;8.50;99.90
29281;DHT22;25048;49.590;11.026;2023-12-28T11:39:43;8.50;99.90
29281;DHT22;25048;49.590;11.026;2023-12-28T11:42:11;8.40;99.90
29281;DHT22;25048;49.590;11.026;2023-12-28T11:44:40;8.40;99.90
29281;DHT22;25048;49.590;11.026;2023-12-28T11:47:25;8.40;99.90
29281;DHT22;25048;49.590;11.026;2023-12-28T11:49:44;8.40;99.90
29281;DHT22;25048;49.590;11.026;2023-12-28T11:52:28;8.40;99.90
29281;DHT22;25048;49.590;11.026;2023-12-28T11:54:57;8.40;99.90
29281;DHT22;25048;49.590;11.026;2023-12-28T11:57:26;8.40;99.90
29281;DHT22;25048;49.590;11.026;2023-12-28T12:00:00;8.40;99.90
29281;DHT22;25048;49.590;11.026;2023-12-28T12:02:28;8.40;99.90
29281;DHT22;25048;49.590;11.026;2023-12-28T12:04:56;8.40;99.90
29281;DHT22;25048;49.590;11.026;2023-12-28T12:07:24;8.50;99.90
29281;DHT22;25048;49.590;11.026;2023-12-28T12:09:57;8.50;99.90
29281;DHT22;25048;49.590;11.026;2023-12-28T12:12:25;8.60;99.90
29281;DHT22;25048;49.590;11.026;2023-12-28T12:14:55;8.70;99.90
29281;DHT22;25048;49.590;11.026;2023-12-28T12:17:23;8.70;99.90
29281;DHT22;25048;49.590;11.026;2023-12-28T12:19:51;8.80;99.90
29281;DHT22;25048;49.590;11.026;2023-12-28T12:22:20;8.80;99.90
29281;DHT22;25048;49.590;11.026;2023-12-28T12:24:49;8.90;99.90
29281;DHT22;25048;49.590;11.026;2023-12-28T12:27:18;8.90;99.90
29281;DHT22;25048;49.590;11.026;2023-12-28T12:29:46;9.00;99.90
29281;DHT22;25048;49.590;11.026;2023-12-28T12:32:14;9.10;99.90
29281;DHT22;25048;49.590;11.026;2023-12-28T12:34:41;9.10;99.90
29281;DHT22;25048;49.590;11.026;2023-12-28T12:37:09;9.20;99.90
29281;DHT22;25048;49.590;11.026;2023-12-28T12:39:37;9.30;99.90
29281;DHT22;25048;49.590;11.026;2023-12-28T12:42:04;9.20;99.90
29281;DHT22;25048;49.590;11.026;2023-12-28T12:44:33;9.20;99.90
29281;DHT22;25048;49.590;11.026;2023-12-28T12:47:02;9.10;99.90
29281;DHT22;25048;49.590;11.026;2023-12-28T12:49:31;9.00;99.90
29281;DHT22;25048;49.590;11.026;2023-12-28T12:51:58;9.00;99.90
29281;DHT22;25048;49.590;11.026;2023-12-28T12:54:27;8.90;99.90
29281;DHT22;25048;49.590;11.026;2023-12-28T12:56:55;8.90;99.90
29281;DHT22;25048;49.590;11.026;2023-12-28T12:59:23;8.90;99.90
29281;DHT22;25048;49.590;11.026;2023-12-28T13:01:52;8.90;99.90
29281;DHT22;25048;49.590;11.026;2023-12-28T13:04:20;8.90;99.90
29281;DHT22;25048;49.590;11.026;2023-12-28T13:06:48;8.90;99.90
29281;DHT22;25048;49.590;11.026;2023-12-28T13:09:15;8.90;99.90
29281;DHT22;25048;49.590;11.026;2023-12-28T13:11:43;8.90;99.90
29281;DHT22;25048;49.590;11.026;2023-12-28T13:14:13;8.90;99.90
29281;DHT22;25048;49.590;11.026;2023-12-28T13:16:40;8.80;99.90
29281;DHT22;25048;49.590;11.026;2023-12-28T13:19:08;8.80;99.90
29281;DHT22;25048;49.590;11.026;2023-12-28T13:21:35;8.80;99.90
29281;DHT22;25048;49.590;11.026;2023-12-28T13:24:03;8.70;99.90
29281;DHT22;25048;49.590;11.026;2023-12-28T13:26:30;8.70;99.90
29281;DHT22;25048;49.590;11.026;2023-12-28T13:28:58;8.70;99.90
29281;DHT22;25048;49.590;11.026;2023-12-28T13:31:25;8.70;99.90
29281;DHT22;25048;49.590;11.026;2023-12-28T13:33:53;8.70;99.90
29281;DHT22;25048;49.590;11.026;2023-12-28T13:36:20;8.60;99.90
29281;DHT22;25048;49.590;11.026;2023-12-28T13:38:48;8.60;99.90
29281;DHT22;25048;49.590;11.026;2023-12-28T13:41:15;8.50;99.90
29281;DHT22;25048;49.590;11.026;2023-12-28T13:43:43;8.50;99.90
29281;DHT22;25048;49.590;11.026;2023-12-28T13:46:10;8.40;99.90
29281;DHT22;25048;49.590;11.026;2023-12-28T13:48:38;8.30;99.90
29281;DHT22;25048;49.590;11.026;2023-12-28T13:51:06;8.30;99.90
29281;DHT22;25048;49.590;11.026;2023-12-28T13:53:34;8.20;99.90
29281;DHT22;25048;49.590;11.026;2023-12-28T13:56:03;8.20;99.90
29281;DHT22;25048;49.590;11.026;2023-12-28T13:58:31;8.20;99.90
29281;DHT22;25048;49.590;11.026;2023-12-28T14:00:58;8.20;99.90
29281;DHT22;25048;49.590;11.026;2023-12-28T14:03:26;8.20;99.90
29281;DHT22;25048;49.590;11.026;2023-12-28T14:05:53;8.10;99.90
29281;DHT22;25048;49.590;11.026;2023-12-28T14:08:21;8.20;99.90
29281;DHT22;25048;49.590;11.026;2023-12-28T14:10:48;8.10;99.90
29281;DHT22;25048;49.590;11.026;2023-12-28T14:13:16;8.20;99.90
29281;DHT22;25048;49.590;11.026;2023-12-28T14:15:43;8.10;99.90
29281;DHT22;25048;49.590;11.026;2023-12-28T14:18:11;8.10;99.90
29281;DHT22;25048;49.590;11.026;2023-12-28T14:20:38;8.10;99.90
29281;DHT22;25048;49.590;11.026;2023-12-28T14:23:06;8.10;99.90
29281;DHT22;25048;49.590;11.026;2023-12-28T14:25:34;8.20;99.90
29281;DHT22;25048;49.590;11.026;2023-12-28T14:28:02;8.20;99.90
29281;DHT22;25048;49.590;11.026;2023-12-28T14:30:30;8.20;99.90
29281;DHT22;25048;49.590;11.026;2023-12-28T14:32:58;8.20;99.90
29281;DHT22;25048;49.590;11.026;2023-12-28T14:35:26;8.20;99.90
29281;DHT22;25048;49.590;11.026;2023-12-28T14:37:54;8.20;99.90
29281;DHT22;25048;49.590;11.026;2023-12-28T14:40:22;8.20;99.90
29281;DHT22;25048;49.590;11.026;2023-12-28T14:42:49;8.20;99.90
29281;DHT22;25048;49.590;11.026;2023-12-28T14:45:17;8.20;99.90
29281;DHT22;25048;49.590;11.026;2023-12-28T14:47:45;8.20;99.90
29281;DHT22;25048;49.590;11.026;2023-12-28T14:50:14;8.20;99.90
29281;DHT22;25048;49.590;11.026;2023-12-28T14:52:41;8.20;99.90
29281;DHT22;25048;49.590;11.026;2023-12-28T14:55:09;8.20;99.90
29281;DHT22;25048;49.590;11.026;2023-12-28T14:57:37;8.20;99.90
29281;DHT22;25048;49.590;11.026;2023-12-28T15:00:05;8.20;99.90
29281;DHT22;25048;49.590;11.026;2023-12-28T15:02:33;8.20;99.90
29281;DHT22;25048;49.590;11.026;2023-12-28T15:05:01;8.20;99.90
29281;DHT22;25048;49.590;11.026;2023-12-28T15:07:28;8.30;99.90
29281;DHT22;25048;49.590;11.026;2023-12-28T15:09:56;8.30;99.90
29281;DHT22;25048;49.590;11.026;2023-12-28T15:12:25;8.30;99.90
29281;DHT22;25048;49.590;11.026;2023-12-28T15:14:52;8.40;99.90
29281;DHT22;25048;49.590;11.026;2023-12-28T15:17:20;8.40;99.90
29281;DHT22;25048;49.590;11.026;2023-12-28T15:19:49;8.50;99.90
29281;DHT22;25048;49.590;11.026;2023-12-28T15:22:17;8.70;99.90
29281;DHT22;25048;49.590;11.026;2023-12-28T15:24:45;8.80;99.90
29281;DHT22;25048;49.590;11.026;2023-12-28T15:27:13;8.90;99.90
29281;DHT22;25048;49.590;11.026;2023-12-28T15:29:40;9.00;99.90
29281;DHT22;25048;49.590;11.026;2023-12-28T15:32:08;9.10;99.90
29281;DHT22;25048;49.590;11.026;2023-12-28T15:34:35;9.10;99.90